sensor_id;sensor_type;location;lat;lon;timestamp;P1;durP1;ratioP1;P2;durP2;ratioP2
75700;SDS011;64321;48.796;44.740;2023-07-31T00:00:34;8.55;;;4.28;;
75700;SDS011;64321;48.796;44.740;2023-07-31T00:05:36;8.10;;;4.25;;
75700;SDS011;64321;48.796;44.740;2023-07-31T00:10:38;8.00;;;4.22;;
75700;SDS011;64321;48.796;44.740;2023-07-31T00:15:41;10.40;;;4.28;;
75700;SDS011;64321;48.796;44.740;2023-07-31T00:20:43;8.77;;;4.15;;
75700;SDS011;64321;48.796;44.740;2023-07-31T00:25:45;9.40;;;4.43;;
75700;SDS011;64321;48.796;44.740;2023-07-31T00:30:47;8.95;;;4.53;;
75700;SDS011;64321;48.796;44.740;2023-07-31T00:35:49;7.45;;;4.70;;
75700;SDS011;64321;48.796;44.740;2023-07-31T00:40:53;8.98;;;4.38;;
75700;SDS011;64321;48.796;44.740;2023-07-31T00:45:55;7.65;;;4.07;;
75700;SDS011;64321;48.796;44.740;2023-07-31T00:50:57;9.30;;;4.40;;
75700;SDS011;64321;48.796;44.740;2023-07-31T00:55:59;8.48;;;3.85;;
75700;SDS011;64321;48.796;44.740;2023-07-31T01:01:02;10.77;;;4.22;;
75700;SDS011;64321;48.796;44.740;2023-07-31T01:11:43;8.40;;;3.83;;
75700;SDS011;64321;48.796;44.740;2023-07-31T01:16:47;7.65;;;3.70;;
75700;SDS011;64321;48.796;44.740;2023-07-31T01:27:00;7.55;;;3.97;;
75700;SDS011;64321;48.796;44.740;2023-07-31T01:32:05;7.55;;;3.22;;
75700;SDS011;64321;48.796;44.740;2023-07-31T01:37:08;6.68;;;3.90;;
75700;SDS011;64321;48.796;44.740;2023-07-31T01:42:10;7.32;;;3.78;;
75700;SDS011;64321;48.796;44.740;2023-07-31T01:47:12;7.45;;;3.53;;
75700;SDS011;64321;48.796;44.740;2023-07-31T01:52:15;6.90;;;3.28;;
75700;SDS011;64321;48.796;44.740;2023-07-31T01:57:17;6.95;;;2.88;;
75700;SDS011;64321;48.796;44.740;2023-07-31T02:02:19;5.95;;;3.03;;
75700;SDS011;64321;48.796;44.740;2023-07-31T02:07:22;7.90;;;3.80;;
75700;SDS011;64321;48.796;44.740;2023-07-31T02:12:24;8.95;;;4.82;;
75700;SDS011;64321;48.796;44.740;2023-07-31T02:17:26;9.82;;;5.20;;
75700;SDS011;64321;48.796;44.740;2023-07-31T02:22:48;11.23;;;6.45;;
75700;SDS011;64321;48.796;44.740;2023-07-31T02:27:50;9.38;;;4.80;;
75700;SDS011;64321;48.796;44.740;2023-07-31T02:32:52;12.02;;;5.15;;
75700;SDS011;64321;48.796;44.740;2023-07-31T02:37:55;8.60;;;4.72;;
75700;SDS011;64321;48.796;44.740;2023-07-31T02:42:57;10.90;;;4.80;;
75700;SDS011;64321;48.796;44.740;2023-07-31T02:48:00;10.23;;;4.75;;
75700;SDS011;64321;48.796;44.740;2023-07-31T02:53:02;7.35;;;4.13;;
75700;SDS011;64321;48.796;44.740;2023-07-31T02:58:05;8.90;;;4.07;;
75700;SDS011;64321;48.796;44.740;2023-07-31T03:03:07;7.95;;;3.95;;
75700;SDS011;64321;48.796;44.740;2023-07-31T03:08:10;10.45;;;3.70;;
75700;SDS011;64321;48.796;44.740;2023-07-31T03:13:12;6.05;;;3.00;;
75700;SDS011;64321;48.796;44.740;2023-07-31T03:18:14;8.45;;;3.83;;
75700;SDS011;64321;48.796;44.740;2023-07-31T03:23:16;5.80;;;3.53;;
75700;SDS011;64321;48.796;44.740;2023-07-31T03:28:18;6.63;;;3.85;;
75700;SDS011;64321;48.796;44.740;2023-07-31T03:33:21;7.18;;;3.33;;
75700;SDS011;64321;48.796;44.740;2023-07-31T03:38:24;8.02;;;3.63;;
75700;SDS011;64321;48.796;44.740;2023-07-31T03:43:28;9.45;;;4.75;;
75700;SDS011;64321;48.796;44.740;2023-07-31T03:48:30;9.13;;;4.15;;
75700;SDS011;64321;48.796;44.740;2023-07-31T03:53:32;9.18;;;3.70;;
75700;SDS011;64321;48.796;44.740;2023-07-31T03:58:34;7.10;;;3.75;;
75700;SDS011;64321;48.796;44.740;2023-07-31T04:03:38;5.55;;;3.60;;
75700;SDS011;64321;48.796;44.740;2023-07-31T04:08:40;7.80;;;3.38;;
75700;SDS011;64321;48.796;44.740;2023-07-31T04:13:43;10.88;;;4.15;;
75700;SDS011;64321;48.796;44.740;2023-07-31T04:18:45;6.22;;;3.63;;
75700;SDS011;64321;48.796;44.740;2023-07-31T04:23:47;9.70;;;4.03;;
75700;SDS011;64321;48.796;44.740;2023-07-31T04:28:50;9.05;;;4.45;;
75700;SDS011;64321;48.796;44.740;2023-07-31T04:33:52;8.52;;;3.95;;
75700;SDS011;64321;48.796;44.740;2023-07-31T04:38:54;7.00;;;3.88;;
75700;SDS011;64321;48.796;44.740;2023-07-31T04:43:56;8.65;;;3.65;;
75700;SDS011;64321;48.796;44.740;2023-07-31T04:48:58;7.07;;;3.20;;
75700;SDS011;64321;48.796;44.740;2023-07-31T04:54:01;5.07;;;2.78;;
75700;SDS011;64321;48.796;44.740;2023-07-31T04:59:03;7.57;;;3.35;;
75700;SDS011;64321;48.796;44.740;2023-07-31T05:04:05;10.27;;;2.95;;
75700;SDS011;64321;48.796;44.740;2023-07-31T05:09:07;8.30;;;2.33;;
75700;SDS011;64321;48.796;44.740;2023-07-31T05:14:11;6.35;;;2.60;;
75700;SDS011;64321;48.796;44.740;2023-07-31T05:19:13;5.15;;;3.13;;
75700;SDS011;64321;48.796;44.740;2023-07-31T05:24:16;7.00;;;3.13;;
75700;SDS011;64321;48.796;44.740;2023-07-31T05:29:18;7.13;;;3.63;;
75700;SDS011;64321;48.796;44.740;2023-07-31T05:34:20;6.50;;;3.67;;
75700;SDS011;64321;48.796;44.740;2023-07-31T05:39:22;5.60;;;3.28;;
75700;SDS011;64321;48.796;44.740;2023-07-31T05:44:24;6.38;;;3.22;;
75700;SDS011;64321;48.796;44.740;2023-07-31T05:49:27;7.82;;;3.03;;
75700;SDS011;64321;48.796;44.740;2023-07-31T05:54:29;6.90;;;2.80;;
75700;SDS011;64321;48.796;44.740;2023-07-31T05:59:31;5.88;;;2.35;;
75700;SDS011;64321;48.796;44.740;2023-07-31T06:04:35;6.70;;;2.55;;
75700;SDS011;64321;48.796;44.740;2023-07-31T06:09:37;7.70;;;3.92;;
75700;SDS011;64321;48.796;44.740;2023-07-31T06:14:39;7.50;;;2.35;;
75700;SDS011;64321;48.796;44.740;2023-07-31T06:19:41;4.25;;;2.25;;
75700;SDS011;64321;48.796;44.740;2023-07-31T06:24:44;5.05;;;2.70;;
75700;SDS011;64321;48.796;44.740;2023-07-31T06:29:46;5.90;;;2.17;;
75700;SDS011;64321;48.796;44.740;2023-07-31T06:34:49;4.63;;;2.13;;
75700;SDS011;64321;48.796;44.740;2023-07-31T06:39:52;3.50;;;1.73;;
75700;SDS011;64321;48.796;44.740;2023-07-31T06:44:54;3.75;;;2.17;;
75700;SDS011;64321;48.796;44.740;2023-07-31T06:49:56;4.18;;;1.70;;
75700;SDS011;64321;48.796;44.740;2023-07-31T06:55:02;7.38;;;2.53;;
75700;SDS011;64321;48.796;44.740;2023-07-31T07:00:06;9.60;;;2.22;;
75700;SDS011;64321;48.796;44.740;2023-07-31T07:05:08;3.58;;;2.10;;
75700;SDS011;64321;48.796;44.740;2023-07-31T07:10:11;4.25;;;2.10;;
75700;SDS011;64321;48.796;44.740;2023-07-31T07:15:13;6.47;;;1.95;;
75700;SDS011;64321;48.796;44.740;2023-07-31T07:20:15;3.28;;;2.08;;
75700;SDS011;64321;48.796;44.740;2023-07-31T07:25:17;4.68;;;2.47;;
75700;SDS011;64321;48.796;44.740;2023-07-31T07:30:20;4.55;;;2.42;;
75700;SDS011;64321;48.796;44.740;2023-07-31T07:35:22;6.78;;;2.70;;
75700;SDS011;64321;48.796;44.740;2023-07-31T07:40:24;3.65;;;1.88;;
75700;SDS011;64321;48.796;44.740;2023-07-31T07:45:27;6.10;;;1.60;;
75700;SDS011;64321;48.796;44.740;2023-07-31T07:50:29;5.38;;;1.70;;
75700;SDS011;64321;48.796;44.740;2023-07-31T07:55:31;3.80;;;2.28;;
75700;SDS011;64321;48.796;44.740;2023-07-31T08:00:33;5.70;;;2.13;;
75700;SDS011;64321;48.796;44.740;2023-07-31T08:05:35;4.05;;;1.90;;
75700;SDS011;64321;48.796;44.740;2023-07-31T08:10:38;6.85;;;2.67;;
75700;SDS011;64321;48.796;44.740;2023-07-31T08:15:43;4.28;;;2.17;;
75700;SDS011;64321;48.796;44.740;2023-07-31T08:20:45;4.45;;;2.65;;
75700;SDS011;64321;48.796;44.740;2023-07-31T08:25:47;4.32;;;2.08;;
75700;SDS011;64321;48.796;44.740;2023-07-31T08:30:51;4.03;;;2.45;;
75700;SDS011;64321;48.796;44.740;2023-07-31T08:35:53;6.65;;;2.63;;
75700;SDS011;64321;48.796;44.740;2023-07-31T08:40:58;5.00;;;2.45;;
75700;SDS011;64321;48.796;44.740;2023-07-31T08:46:01;5.05;;;2.47;;
75700;SDS011;64321;48.796;44.740;2023-07-31T08:51:04;4.38;;;2.60;;
75700;SDS011;64321;48.796;44.740;2023-07-31T08:56:06;4.30;;;2.15;;
75700;SDS011;64321;48.796;44.740;2023-07-31T09:01:09;4.95;;;2.35;;
75700;SDS011;64321;48.796;44.740;2023-07-31T09:06:11;3.45;;;2.80;;
75700;SDS011;64321;48.796;44.740;2023-07-31T09:11:14;3.58;;;2.03;;
75700;SDS011;64321;48.796;44.740;2023-07-31T09:16:17;4.75;;;2.08;;
75700;SDS011;64321;48.796;44.740;2023-07-31T09:21:19;3.25;;;2.08;;
75700;SDS011;64321;48.796;44.740;2023-07-31T09:26:34;3.83;;;1.73;;
75700;SDS011;64321;48.796;44.740;2023-07-31T09:31:41;4.57;;;2.28;;
75700;SDS011;64321;48.796;44.740;2023-07-31T09:36:44;4.28;;;2.45;;
75700;SDS011;64321;48.796;44.740;2023-07-31T09:41:48;4.90;;;2.67;;
75700;SDS011;64321;48.796;44.740;2023-07-31T09:46:55;5.82;;;2.28;;
75700;SDS011;64321;48.796;44.740;2023-07-31T09:51:57;5.05;;;2.38;;
75700;SDS011;64321;48.796;44.740;2023-07-31T09:56:59;4.68;;;2.35;;
75700;SDS011;64321;48.796;44.740;2023-07-31T10:02:02;4.45;;;2.05;;
75700;SDS011;64321;48.796;44.740;2023-07-31T10:07:04;5.15;;;2.72;;
75700;SDS011;64321;48.796;44.740;2023-07-31T10:12:06;5.22;;;2.65;;
75700;SDS011;64321;48.796;44.740;2023-07-31T10:17:11;6.80;;;2.42;;
75700;SDS011;64321;48.796;44.740;2023-07-31T10:22:15;5.72;;;2.38;;
75700;SDS011;64321;48.796;44.740;2023-07-31T10:27:17;6.50;;;2.83;;
75700;SDS011;64321;48.796;44.740;2023-07-31T10:32:20;5.30;;;1.98;;
75700;SDS011;64321;48.796;44.740;2023-07-31T10:42:28;9.45;;;2.25;;
75700;SDS011;64321;48.796;44.740;2023-07-31T10:47:36;4.25;;;2.05;;
75700;SDS011;64321;48.796;44.740;2023-07-31T10:52:38;5.18;;;2.63;;
75700;SDS011;64321;48.796;44.740;2023-07-31T10:57:44;7.38;;;2.08;;
75700;SDS011;64321;48.796;44.740;2023-07-31T11:02:56;4.38;;;2.28;;
75700;SDS011;64321;48.796;44.740;2023-07-31T11:07:59;2.85;;;1.73;;
75700;SDS011;64321;48.796;44.740;2023-07-31T11:13:03;5.03;;;2.45;;
75700;SDS011;64321;48.796;44.740;2023-07-31T11:18:06;4.30;;;2.63;;
75700;SDS011;64321;48.796;44.740;2023-07-31T11:23:10;4.15;;;2.10;;
75700;SDS011;64321;48.796;44.740;2023-07-31T11:28:14;3.55;;;1.92;;
75700;SDS011;64321;48.796;44.740;2023-07-31T11:33:16;2.85;;;1.73;;
75700;SDS011;64321;48.796;44.740;2023-07-31T11:38:27;4.88;;;2.00;;
75700;SDS011;64321;48.796;44.740;2023-07-31T11:43:33;4.90;;;2.33;;
75700;SDS011;64321;48.796;44.740;2023-07-31T11:48:36;3.88;;;2.05;;
75700;SDS011;64321;48.796;44.740;2023-07-31T11:53:51;4.28;;;2.17;;
75700;SDS011;64321;48.796;44.740;2023-07-31T11:58:56;5.20;;;2.45;;
75700;SDS011;64321;48.796;44.740;2023-07-31T12:04:00;3.80;;;2.30;;
75700;SDS011;64321;48.796;44.740;2023-07-31T12:09:03;3.30;;;1.80;;
75700;SDS011;64321;48.796;44.740;2023-07-31T12:14:05;7.32;;;2.13;;
75700;SDS011;64321;48.796;44.740;2023-07-31T12:19:08;4.07;;;1.80;;
75700;SDS011;64321;48.796;44.740;2023-07-31T12:24:10;3.00;;;2.00;;
75700;SDS011;64321;48.796;44.740;2023-07-31T12:29:12;3.85;;;1.95;;
75700;SDS011;64321;48.796;44.740;2023-07-31T12:34:18;3.53;;;2.10;;
75700;SDS011;64321;48.796;44.740;2023-07-31T12:39:20;5.22;;;2.13;;
75700;SDS011;64321;48.796;44.740;2023-07-31T12:44:22;5.75;;;2.20;;
75700;SDS011;64321;48.796;44.740;2023-07-31T12:49:25;3.55;;;2.35;;
75700;SDS011;64321;48.796;44.740;2023-07-31T12:54:27;3.47;;;2.38;;
75700;SDS011;64321;48.796;44.740;2023-07-31T12:59:30;6.10;;;2.13;;
75700;SDS011;64321;48.796;44.740;2023-07-31T13:04:32;3.65;;;2.10;;
75700;SDS011;64321;48.796;44.740;2023-07-31T13:09:34;4.13;;;2.35;;
75700;SDS011;64321;48.796;44.740;2023-07-31T13:14:36;5.10;;;2.25;;
75700;SDS011;64321;48.796;44.740;2023-07-31T13:19:38;4.85;;;2.08;;
75700;SDS011;64321;48.796;44.740;2023-07-31T13:24:41;3.20;;;1.92;;
75700;SDS011;64321;48.796;44.740;2023-07-31T13:29:43;4.35;;;2.13;;
75700;SDS011;64321;48.796;44.740;2023-07-31T13:34:46;4.22;;;2.40;;
75700;SDS011;64321;48.796;44.740;2023-07-31T13:39:48;5.25;;;2.65;;
75700;SDS011;64321;48.796;44.740;2023-07-31T13:44:50;6.43;;;2.55;;
75700;SDS011;64321;48.796;44.740;2023-07-31T13:49:53;6.55;;;2.25;;
75700;SDS011;64321;48.796;44.740;2023-07-31T13:54:55;4.35;;;2.47;;
75700;SDS011;64321;48.796;44.740;2023-07-31T13:59:57;3.97;;;2.13;;
75700;SDS011;64321;48.796;44.740;2023-07-31T14:04:59;4.53;;;1.88;;
75700;SDS011;64321;48.796;44.740;2023-07-31T14:10:02;6.28;;;2.10;;
75700;SDS011;64321;48.796;44.740;2023-07-31T14:15:06;5.15;;;2.22;;
75700;SDS011;64321;48.796;44.740;2023-07-31T14:20:08;7.00;;;2.03;;
75700;SDS011;64321;48.796;44.740;2023-07-31T14:25:11;3.75;;;2.03;;
75700;SDS011;64321;48.796;44.740;2023-07-31T14:30:14;5.95;;;2.47;;
75700;SDS011;64321;48.796;44.740;2023-07-31T14:35:16;5.40;;;2.20;;
75700;SDS011;64321;48.796;44.740;2023-07-31T14:40:18;4.22;;;1.98;;
75700;SDS011;64321;48.796;44.740;2023-07-31T14:45:20;3.70;;;2.38;;
75700;SDS011;64321;48.796;44.740;2023-07-31T14:50:23;4.30;;;3.05;;
75700;SDS011;64321;48.796;44.740;2023-07-31T14:55:26;6.35;;;2.15;;
75700;SDS011;64321;48.796;44.740;2023-07-31T15:00:28;6.68;;;1.98;;
75700;SDS011;64321;48.796;44.740;2023-07-31T15:05:30;5.97;;;2.42;;
75700;SDS011;64321;48.796;44.740;2023-07-31T15:10:33;4.03;;;1.85;;
75700;SDS011;64321;48.796;44.740;2023-07-31T15:15:35;4.47;;;2.03;;
75700;SDS011;64321;48.796;44.740;2023-07-31T15:20:37;8.15;;;2.25;;
75700;SDS011;64321;48.796;44.740;2023-07-31T15:25:39;5.82;;;2.33;;
75700;SDS011;64321;48.796;44.740;2023-07-31T15:30:41;4.93;;;2.15;;
75700;SDS011;64321;48.796;44.740;2023-07-31T15:35:44;5.70;;;2.03;;
75700;SDS011;64321;48.796;44.740;2023-07-31T15:40:46;3.67;;;2.00;;
75700;SDS011;64321;48.796;44.740;2023-07-31T15:45:49;4.60;;;2.17;;
75700;SDS011;64321;48.796;44.740;2023-07-31T15:50:52;13.68;;;2.15;;
75700;SDS011;64321;48.796;44.740;2023-07-31T15:55:54;9.43;;;2.70;;
75700;SDS011;64321;48.796;44.740;2023-07-31T16:00:57;9.57;;;2.40;;
75700;SDS011;64321;48.796;44.740;2023-07-31T16:05:59;6.03;;;2.85;;
75700;SDS011;64321;48.796;44.740;2023-07-31T16:11:01;7.25;;;3.72;;
75700;SDS011;64321;48.796;44.740;2023-07-31T16:16:04;7.78;;;4.05;;
75700;SDS011;64321;48.796;44.740;2023-07-31T16:21:06;6.25;;;3.50;;
75700;SDS011;64321;48.796;44.740;2023-07-31T16:26:08;9.10;;;4.05;;
75700;SDS011;64321;48.796;44.740;2023-07-31T16:31:11;7.40;;;3.85;;
75700;SDS011;64321;48.796;44.740;2023-07-31T16:36:13;5.53;;;2.97;;
75700;SDS011;64321;48.796;44.740;2023-07-31T16:41:15;7.57;;;2.90;;
75700;SDS011;64321;48.796;44.740;2023-07-31T16:46:18;10.45;;;4.00;;
75700;SDS011;64321;48.796;44.740;2023-07-31T16:51:20;7.43;;;3.92;;
75700;SDS011;64321;48.796;44.740;2023-07-31T16:56:22;9.38;;;3.85;;
75700;SDS011;64321;48.796;44.740;2023-07-31T17:01:24;7.15;;;2.92;;
75700;SDS011;64321;48.796;44.740;2023-07-31T17:06:32;7.25;;;3.67;;
75700;SDS011;64321;48.796;44.740;2023-07-31T17:11:35;8.15;;;4.15;;
75700;SDS011;64321;48.796;44.740;2023-07-31T17:16:37;11.00;;;3.90;;
75700;SDS011;64321;48.796;44.740;2023-07-31T17:21:40;7.95;;;4.07;;
75700;SDS011;64321;48.796;44.740;2023-07-31T17:26:42;12.88;;;4.20;;
75700;SDS011;64321;48.796;44.740;2023-07-31T17:31:45;12.38;;;4.03;;
75700;SDS011;64321;48.796;44.740;2023-07-31T17:36:47;12.00;;;4.47;;
75700;SDS011;64321;48.796;44.740;2023-07-31T17:41:49;9.75;;;4.32;;
75700;SDS011;64321;48.796;44.740;2023-07-31T17:46:51;10.30;;;4.68;;
75700;SDS011;64321;48.796;44.740;2023-07-31T17:51:54;7.80;;;4.65;;
75700;SDS011;64321;48.796;44.740;2023-07-31T17:56:56;15.40;;;5.53;;
75700;SDS011;64321;48.796;44.740;2023-07-31T18:01:58;14.90;;;8.02;;
75700;SDS011;64321;48.796;44.740;2023-07-31T18:07:00;17.67;;;9.45;;
75700;SDS011;64321;48.796;44.740;2023-07-31T18:12:03;15.10;;;7.88;;
75700;SDS011;64321;48.796;44.740;2023-07-31T18:17:05;15.63;;;9.80;;
75700;SDS011;64321;48.796;44.740;2023-07-31T18:22:08;16.67;;;10.85;;
75700;SDS011;64321;48.796;44.740;2023-07-31T18:27:10;21.45;;;11.52;;
75700;SDS011;64321;48.796;44.740;2023-07-31T18:32:12;24.58;;;12.65;;
75700;SDS011;64321;48.796;44.740;2023-07-31T18:37:14;24.00;;;11.57;;
75700;SDS011;64321;48.796;44.740;2023-07-31T18:42:16;22.05;;;11.43;;
75700;SDS011;64321;48.796;44.740;2023-07-31T18:47:18;21.00;;;10.85;;
75700;SDS011;64321;48.796;44.740;2023-07-31T18:52:21;20.25;;;10.55;;
75700;SDS011;64321;48.796;44.740;2023-07-31T18:57:23;22.27;;;10.65;;
75700;SDS011;64321;48.796;44.740;2023-07-31T19:02:25;21.33;;;11.10;;
75700;SDS011;64321;48.796;44.740;2023-07-31T19:07:28;25.92;;;10.98;;
75700;SDS011;64321;48.796;44.740;2023-07-31T19:12:30;16.42;;;9.88;;
75700;SDS011;64321;48.796;44.740;2023-07-31T19:17:32;18.52;;;9.80;;
75700;SDS011;64321;48.796;44.740;2023-07-31T19:22:37;15.35;;;7.50;;
75700;SDS011;64321;48.796;44.740;2023-07-31T19:27:39;8.70;;;5.50;;
75700;SDS011;64321;48.796;44.740;2023-07-31T19:37:47;12.45;;;4.85;;
75700;SDS011;64321;48.796;44.740;2023-07-31T19:42:49;17.38;;;4.35;;
75700;SDS011;64321;48.796;44.740;2023-07-31T19:47:51;12.13;;;5.07;;
75700;SDS011;64321;48.796;44.740;2023-07-31T19:52:53;7.35;;;4.50;;
75700;SDS011;64321;48.796;44.740;2023-07-31T19:57:56;9.43;;;4.53;;
75700;SDS011;64321;48.796;44.740;2023-07-31T20:02:58;9.73;;;5.78;;
75700;SDS011;64321;48.796;44.740;2023-07-31T20:08:00;13.68;;;6.95;;
75700;SDS011;64321;48.796;44.740;2023-07-31T20:13:02;18.13;;;7.57;;
75700;SDS011;64321;48.796;44.740;2023-07-31T20:18:04;19.05;;;9.00;;
75700;SDS011;64321;48.796;44.740;2023-07-31T20:23:07;12.68;;;7.90;;
75700;SDS011;64321;48.796;44.740;2023-07-31T20:28:09;18.73;;;7.47;;
75700;SDS011;64321;48.796;44.740;2023-07-31T20:33:11;11.50;;;6.50;;
75700;SDS011;64321;48.796;44.740;2023-07-31T20:38:14;16.10;;;6.93;;
75700;SDS011;64321;48.796;44.740;2023-07-31T20:43:16;10.13;;;5.60;;
75700;SDS011;64321;48.796;44.740;2023-07-31T20:48:19;10.77;;;6.20;;
75700;SDS011;64321;48.796;44.740;2023-07-31T20:53:22;14.23;;;6.85;;
75700;SDS011;64321;48.796;44.740;2023-07-31T20:58:24;12.10;;;5.95;;
75700;SDS011;64321;48.796;44.740;2023-07-31T21:03:26;15.43;;;8.20;;
75700;SDS011;64321;48.796;44.740;2023-07-31T21:08:28;15.27;;;7.55;;
75700;SDS011;64321;48.796;44.740;2023-07-31T21:13:31;11.95;;;6.05;;
75700;SDS011;64321;48.796;44.740;2023-07-31T21:18:33;15.32;;;7.85;;
75700;SDS011;64321;48.796;44.740;2023-07-31T21:23:35;14.82;;;6.68;;
75700;SDS011;64321;48.796;44.740;2023-07-31T21:28:37;9.63;;;4.53;;
75700;SDS011;64321;48.796;44.740;2023-07-31T21:33:42;6.55;;;4.03;;
75700;SDS011;64321;48.796;44.740;2023-07-31T21:38:44;11.77;;;4.35;;
75700;SDS011;64321;48.796;44.740;2023-07-31T21:43:47;8.55;;;3.42;;
75700;SDS011;64321;48.796;44.740;2023-07-31T21:48:49;6.93;;;3.25;;
75700;SDS011;64321;48.796;44.740;2023-07-31T21:53:51;7.15;;;3.28;;
75700;SDS011;64321;48.796;44.740;2023-07-31T21:58:53;6.78;;;2.85;;
75700;SDS011;64321;48.796;44.740;2023-07-31T22:03:55;4.97;;;2.97;;
75700;SDS011;64321;48.796;44.740;2023-07-31T22:08:58;5.57;;;3.13;;
75700;SDS011;64321;48.796;44.740;2023-07-31T22:14:00;5.30;;;2.60;;
75700;SDS011;64321;48.796;44.740;2023-07-31T22:19:02;5.00;;;2.88;;
75700;SDS011;64321;48.796;44.740;2023-07-31T22:24:04;5.45;;;2.38;;
75700;SDS011;64321;48.796;44.740;2023-07-31T22:29:06;7.13;;;3.33;;
75700;SDS011;64321;48.796;44.740;2023-07-31T22:34:09;7.10;;;2.60;;
75700;SDS011;64321;48.796;44.740;2023-07-31T22:39:11;6.30;;;2.75;;
75700;SDS011;64321;48.796;44.740;2023-07-31T22:44:13;7.05;;;3.50;;
75700;SDS011;64321;48.796;44.740;2023-07-31T22:49:15;5.32;;;3.08;;
75700;SDS011;64321;48.796;44.740;2023-07-31T22:54:17;10.75;;;3.53;;
75700;SDS011;64321;48.796;44.740;2023-07-31T22:59:20;5.00;;;3.10;;
75700;SDS011;64321;48.796;44.740;2023-07-31T23:04:22;6.35;;;2.85;;
75700;SDS011;64321;48.796;44.740;2023-07-31T23:09:24;10.15;;;3.28;;
75700;SDS011;64321;48.796;44.740;2023-07-31T23:14:26;7.65;;;3.47;;
75700;SDS011;64321;48.796;44.740;2023-07-31T23:19:28;8.75;;;3.92;;
75700;SDS011;64321;48.796;44.740;2023-07-31T23:24:31;18.67;;;4.63;;
75700;SDS011;64321;48.796;44.740;2023-07-31T23:29:33;11.70;;;5.03;;
75700;SDS011;64321;48.796;44.740;2023-07-31T23:34:37;6.15;;;3.70;;
75700;SDS011;64321;48.796;44.740;2023-07-31T23:39:39;5.90;;;3.90;;
75700;SDS011;64321;48.796;44.740;2023-07-31T23:44:41;5.15;;;3.15;;
75700;SDS011;64321;48.796;44.740;2023-07-31T23:49:49;8.35;;;3.55;;
75700;SDS011;64321;48.796;44.740;2023-07-31T23:54:51;7.97;;;3.30;;
75700;SDS011;64321;48.796;44.740;2023-07-31T23:59:53;5.60;;;2.85;;
